sensor_id;sensor_type;location;lat;lon;timestamp;pressure;altitude;pressure_sealevel;temperature;humidity
21828;BME280;11076;47.942;11.804;2023-02-10T00:03:19;95931.84;;;-4.09;88.59
21828;BME280;11076;47.942;11.804;2023-02-10T00:08:21;95944.09;;;-3.95;89.31
21828;BME280;11076;47.942;11.804;2023-02-10T00:13:24;95939.50;;;-4.06;88.26
21828;BME280;11076;47.942;11.804;2023-02-10T00:18:27;95933.44;;;-3.92;88.53
21828;BME280;11076;47.942;11.804;2023-02-10T00:23:30;95943.22;;;-3.96;87.89
21828;BME280;11076;47.942;11.804;2023-02-10T00:28:33;95950.16;;;-3.95;87.68
21828;BME280;11076;47.942;11.804;2023-02-10T00:33:36;95942.09;;;-4.06;88.03
21828;BME280;11076;47.942;11.804;2023-02-10T00:38:39;95956.28;;;-3.96;87.76
21828;BME280;11076;47.942;11.804;2023-02-10T00:43:43;95963.13;;;-3.93;87.69
21828;BME280;11076;47.942;11.804;2023-02-10T00:48:47;95964.19;;;-4.12;86.66
21828;BME280;11076;47.942;11.804;2023-02-10T00:53:49;95971.66;;;-4.20;87.12
21828;BME280;11076;47.942;11.804;2023-02-10T00:58:53;95978.69;;;-4.06;87.37
21828;BME280;11076;47.942;11.804;2023-02-10T01:03:55;95986.03;;;-4.13;87.33
21828;BME280;11076;47.942;11.804;2023-02-10T01:08:57;95984.31;;;-4.28;87.70
21828;BME280;11076;47.942;11.804;2023-02-10T01:14:00;95993.19;;;-4.31;88.03
21828;BME280;11076;47.942;11.804;2023-02-10T01:19:03;96002.69;;;-4.30;88.36
21828;BME280;11076;47.942;11.804;2023-02-10T01:24:05;96009.22;;;-4.37;89.00
21828;BME280;11076;47.942;11.804;2023-02-10T01:29:08;96004.38;;;-4.59;89.21
21828;BME280;11076;47.942;11.804;2023-02-10T01:34:12;96018.13;;;-4.87;88.39
21828;BME280;11076;47.942;11.804;2023-02-10T01:39:15;96011.47;;;-5.09;89.42
21828;BME280;11076;47.942;11.804;2023-02-10T01:49:29;96009.22;;;-5.15;89.95
21828;BME280;11076;47.942;11.804;2023-02-10T01:54:39;96011.06;;;-5.17;89.47
21828;BME280;11076;47.942;11.804;2023-02-10T01:59:43;96011.56;;;-5.10;90.21
21828;BME280;11076;47.942;11.804;2023-02-10T02:04:52;96021.41;;;-5.00;89.88
21828;BME280;11076;47.942;11.804;2023-02-10T02:09:56;96020.97;;;-4.76;90.53
21828;BME280;11076;47.942;11.804;2023-02-10T02:15:19;96026.38;;;-4.79;90.53
21828;BME280;11076;47.942;11.804;2023-02-10T02:31:44;96030.56;;;-5.08;91.92
21828;BME280;11076;47.942;11.804;2023-02-10T02:37:05;96036.53;;;-5.22;91.22
21828;BME280;11076;47.942;11.804;2023-02-10T02:42:16;96042.69;;;-5.23;91.58
21828;BME280;11076;47.942;11.804;2023-02-10T02:47:41;96043.84;;;-5.29;91.95
21828;BME280;11076;47.942;11.804;2023-02-10T03:03:15;96058.53;;;-5.44;92.62
21828;BME280;11076;47.942;11.804;2023-02-10T03:08:19;96058.72;;;-5.47;91.75
21828;BME280;11076;47.942;11.804;2023-02-10T03:13:21;96058.59;;;-5.45;93.12
21828;BME280;11076;47.942;11.804;2023-02-10T03:18:24;96062.19;;;-5.30;92.47
21828;BME280;11076;47.942;11.804;2023-02-10T03:23:27;96057.56;;;-5.25;92.03
21828;BME280;11076;47.942;11.804;2023-02-10T03:28:29;96056.56;;;-5.23;92.13
21828;BME280;11076;47.942;11.804;2023-02-10T03:33:32;96055.72;;;-5.23;91.61
21828;BME280;11076;47.942;11.804;2023-02-10T03:38:34;96058.91;;;-5.18;91.79
21828;BME280;11076;47.942;11.804;2023-02-10T03:43:37;96067.50;;;-5.16;91.57
21828;BME280;11076;47.942;11.804;2023-02-10T03:48:39;96063.97;;;-5.15;91.42
21828;BME280;11076;47.942;11.804;2023-02-10T03:53:41;96058.44;;;-5.09;91.36
21828;BME280;11076;47.942;11.804;2023-02-10T03:58:44;96059.00;;;-5.04;91.42
21828;BME280;11076;47.942;11.804;2023-02-10T04:03:46;96058.69;;;-4.82;91.21
21828;BME280;11076;47.942;11.804;2023-02-10T04:08:49;96065.75;;;-4.68;90.38
21828;BME280;11076;47.942;11.804;2023-02-10T04:13:51;96057.16;;;-4.70;90.50
21828;BME280;11076;47.942;11.804;2023-02-10T04:18:54;96067.13;;;-4.76;90.66
21828;BME280;11076;47.942;11.804;2023-02-10T04:23:56;96066.97;;;-4.73;90.67
21828;BME280;11076;47.942;11.804;2023-02-10T04:28:59;96072.81;;;-4.70;89.92
21828;BME280;11076;47.942;11.804;2023-02-10T04:34:01;96071.91;;;-4.85;90.25
21828;BME280;11076;47.942;11.804;2023-02-10T04:39:04;96073.00;;;-5.05;90.18
21828;BME280;11076;47.942;11.804;2023-02-10T04:44:06;96073.28;;;-5.27;90.84
21828;BME280;11076;47.942;11.804;2023-02-10T04:49:08;96076.44;;;-5.37;91.97
21828;BME280;11076;47.942;11.804;2023-02-10T04:54:11;96096.03;;;-5.46;90.77
21828;BME280;11076;47.942;11.804;2023-02-10T04:59:13;96091.31;;;-5.73;91.05
21828;BME280;11076;47.942;11.804;2023-02-10T05:04:16;96086.88;;;-5.88;90.87
21828;BME280;11076;47.942;11.804;2023-02-10T05:09:18;96081.16;;;-5.95;91.49
21828;BME280;11076;47.942;11.804;2023-02-10T05:14:20;96080.22;;;-5.76;91.53
21828;BME280;11076;47.942;11.804;2023-02-10T05:19:23;96081.19;;;-5.79;90.86
21828;BME280;11076;47.942;11.804;2023-02-10T05:24:25;96091.16;;;-5.70;91.19
21828;BME280;11076;47.942;11.804;2023-02-10T05:29:27;96079.97;;;-5.72;91.19
21828;BME280;11076;47.942;11.804;2023-02-10T05:34:30;96091.16;;;-5.70;91.49
21828;BME280;11076;47.942;11.804;2023-02-10T05:39:32;96094.06;;;-5.58;91.49
21828;BME280;11076;47.942;11.804;2023-02-10T05:44:35;96100.53;;;-5.32;91.72
21828;BME280;11076;47.942;11.804;2023-02-10T05:49:37;96114.78;;;-5.40;91.63
21828;BME280;11076;47.942;11.804;2023-02-10T05:54:39;96133.22;;;-5.60;91.65
21828;BME280;11076;47.942;11.804;2023-02-10T05:59:44;96146.72;;;-5.87;91.70
21828;BME280;11076;47.942;11.804;2023-02-10T06:04:47;96149.19;;;-6.01;92.07
21828;BME280;11076;47.942;11.804;2023-02-10T06:09:49;96153.16;;;-6.11;91.95
21828;BME280;11076;47.942;11.804;2023-02-10T06:14:52;96155.34;;;-6.21;92.22
21828;BME280;11076;47.942;11.804;2023-02-10T06:19:54;96163.75;;;-6.33;92.14
21828;BME280;11076;47.942;11.804;2023-02-10T06:24:56;96163.47;;;-6.27;92.15
21828;BME280;11076;47.942;11.804;2023-02-10T06:29:59;96166.41;;;-6.35;91.82
21828;BME280;11076;47.942;11.804;2023-02-10T06:35:02;96171.50;;;-6.32;92.52
21828;BME280;11076;47.942;11.804;2023-02-10T06:40:05;96182.53;;;-6.27;92.34
21828;BME280;11076;47.942;11.804;2023-02-10T06:45:08;96192.75;;;-6.22;92.56
21828;BME280;11076;47.942;11.804;2023-02-10T06:50:10;96194.16;;;-5.97;92.30
21828;BME280;11076;47.942;11.804;2023-02-10T06:55:14;96202.84;;;-5.62;92.35
21828;BME280;11076;47.942;11.804;2023-02-10T07:00:17;96218.72;;;-5.32;92.17
21828;BME280;11076;47.942;11.804;2023-02-10T07:05:19;96214.63;;;-5.20;91.82
21828;BME280;11076;47.942;11.804;2023-02-10T07:10:22;96205.72;;;-5.16;91.76
21828;BME280;11076;47.942;11.804;2023-02-10T07:15:24;96216.16;;;-5.16;91.06
21828;BME280;11076;47.942;11.804;2023-02-10T07:20:27;96216.91;;;-4.96;90.96
21828;BME280;11076;47.942;11.804;2023-02-10T07:25:29;96215.75;;;-4.57;90.03
21828;BME280;11076;47.942;11.804;2023-02-10T07:30:32;96216.53;;;-4.40;89.50
21828;BME280;11076;47.942;11.804;2023-02-10T07:35:35;96215.94;;;-4.29;89.04
21828;BME280;11076;47.942;11.804;2023-02-10T07:40:37;96215.19;;;-4.15;88.49
21828;BME280;11076;47.942;11.804;2023-02-10T07:45:42;96225.31;;;-3.93;88.66
21828;BME280;11076;47.942;11.804;2023-02-10T07:50:46;96231.09;;;-3.72;88.12
21828;BME280;11076;47.942;11.804;2023-02-10T07:55:48;96240.09;;;-3.46;86.98
21828;BME280;11076;47.942;11.804;2023-02-10T08:00:51;96240.53;;;-3.23;86.40
21828;BME280;11076;47.942;11.804;2023-02-10T08:05:54;96250.94;;;-3.07;86.40
21828;BME280;11076;47.942;11.804;2023-02-10T08:10:56;96246.00;;;-2.97;86.17
21828;BME280;11076;47.942;11.804;2023-02-10T08:15:59;96253.72;;;-2.80;86.04
21828;BME280;11076;47.942;11.804;2023-02-10T08:21:01;96244.91;;;-2.65;85.51
21828;BME280;11076;47.942;11.804;2023-02-10T08:26:10;96244.19;;;-2.38;85.27
21828;BME280;11076;47.942;11.804;2023-02-10T08:31:13;96244.28;;;-2.11;84.44
21828;BME280;11076;47.942;11.804;2023-02-10T08:36:17;96247.66;;;-1.82;83.89
21828;BME280;11076;47.942;11.804;2023-02-10T08:41:19;96247.44;;;-1.64;81.77
21828;BME280;11076;47.942;11.804;2023-02-10T08:46:22;96247.69;;;-1.54;80.16
21828;BME280;11076;47.942;11.804;2023-02-10T08:51:24;96245.56;;;-1.35;78.62
21828;BME280;11076;47.942;11.804;2023-02-10T08:56:27;96239.06;;;-1.16;78.57
21828;BME280;11076;47.942;11.804;2023-02-10T09:01:29;96251.44;;;-0.91;76.92
21828;BME280;11076;47.942;11.804;2023-02-10T09:06:34;96251.75;;;-0.70;75.25
21828;BME280;11076;47.942;11.804;2023-02-10T09:11:41;96263.44;;;-0.49;75.65
21828;BME280;11076;47.942;11.804;2023-02-10T09:16:44;96260.38;;;-0.30;73.43
21828;BME280;11076;47.942;11.804;2023-02-10T09:21:46;96263.91;;;-0.05;74.26
21828;BME280;11076;47.942;11.804;2023-02-10T09:26:49;96258.72;;;0.19;74.80
21828;BME280;11076;47.942;11.804;2023-02-10T09:31:51;96258.13;;;0.39;75.14
21828;BME280;11076;47.942;11.804;2023-02-10T09:36:53;96251.75;;;0.55;71.16
21828;BME280;11076;47.942;11.804;2023-02-10T09:58:04;96258.41;;;1.43;69.95
21828;BME280;11076;47.942;11.804;2023-02-10T10:03:14;96252.66;;;1.49;67.37
21828;BME280;11076;47.942;11.804;2023-02-10T10:14:00;96244.19;;;1.90;68.11
21828;BME280;11076;47.942;11.804;2023-02-10T10:30:50;96244.16;;;2.47;66.92
21828;BME280;11076;47.942;11.804;2023-02-10T10:35:57;96234.88;;;2.52;66.34
21828;BME280;11076;47.942;11.804;2023-02-10T10:41:06;96229.19;;;2.68;64.65
21828;BME280;11076;47.942;11.804;2023-02-10T10:46:13;96215.13;;;2.79;63.63
21828;BME280;11076;47.942;11.804;2023-02-10T10:51:17;96213.91;;;2.83;64.23
21828;BME280;11076;47.942;11.804;2023-02-10T11:01:40;96217.25;;;2.85;60.70
21828;BME280;11076;47.942;11.804;2023-02-10T11:06:46;96196.00;;;3.08;62.33
21828;BME280;11076;47.942;11.804;2023-02-10T11:11:51;96191.09;;;3.24;63.10
21828;BME280;11076;47.942;11.804;2023-02-10T11:16:59;96190.31;;;3.33;62.84
21828;BME280;11076;47.942;11.804;2023-02-10T11:22:13;96171.69;;;3.35;61.26
21828;BME280;11076;47.942;11.804;2023-02-10T11:27:16;96165.47;;;3.46;61.80
21828;BME280;11076;47.942;11.804;2023-02-10T11:32:28;96149.66;;;3.55;59.56
21828;BME280;11076;47.942;11.804;2023-02-10T11:37:37;96144.53;;;3.64;61.02
21828;BME280;11076;47.942;11.804;2023-02-10T11:42:39;96148.25;;;3.92;60.72
21828;BME280;11076;47.942;11.804;2023-02-10T11:47:42;96143.41;;;3.97;60.79
21828;BME280;11076;47.942;11.804;2023-02-10T11:52:44;96137.25;;;3.87;58.84
21828;BME280;11076;47.942;11.804;2023-02-10T11:57:55;96145.34;;;3.95;59.18
21828;BME280;11076;47.942;11.804;2023-02-10T12:13:59;96131.31;;;4.24;58.23
21828;BME280;11076;47.942;11.804;2023-02-10T12:19:10;96127.31;;;4.29;58.59
21828;BME280;11076;47.942;11.804;2023-02-10T12:24:35;96118.25;;;4.32;55.98
21828;BME280;11076;47.942;11.804;2023-02-10T12:35:04;96109.47;;;4.31;54.17
21828;BME280;11076;47.942;11.804;2023-02-10T12:56:01;96115.47;;;4.63;52.68
21828;BME280;11076;47.942;11.804;2023-02-10T13:06:45;96094.53;;;4.79;49.20
21828;BME280;11076;47.942;11.804;2023-02-10T13:17:27;96076.69;;;4.81;49.27
21828;BME280;11076;47.942;11.804;2023-02-10T13:22:50;96073.91;;;4.73;49.80
21828;BME280;11076;47.942;11.804;2023-02-10T13:28:12;96081.03;;;4.53;49.63
21828;BME280;11076;47.942;11.804;2023-02-10T13:39:18;96075.41;;;4.85;50.93
21828;BME280;11076;47.942;11.804;2023-02-10T13:44:29;96068.16;;;4.87;51.60
21828;BME280;11076;47.942;11.804;2023-02-10T13:49:32;96066.63;;;4.85;51.79
21828;BME280;11076;47.942;11.804;2023-02-10T13:54:35;96062.59;;;4.81;50.42
21828;BME280;11076;47.942;11.804;2023-02-10T13:59:39;96080.47;;;4.69;50.60
21828;BME280;11076;47.942;11.804;2023-02-10T14:04:46;96080.34;;;4.61;50.42
21828;BME280;11076;47.942;11.804;2023-02-10T14:10:01;96074.22;;;4.50;49.01
21828;BME280;11076;47.942;11.804;2023-02-10T14:15:39;96072.97;;;4.54;50.23
21828;BME280;11076;47.942;11.804;2023-02-10T14:20:44;96067.91;;;4.61;49.97
21828;BME280;11076;47.942;11.804;2023-02-10T14:25:47;96075.59;;;4.64;49.56
21828;BME280;11076;47.942;11.804;2023-02-10T14:30:56;96077.00;;;4.58;47.28
21828;BME280;11076;47.942;11.804;2023-02-10T14:36:13;96071.44;;;4.42;46.11
21828;BME280;11076;47.942;11.804;2023-02-10T14:41:17;96070.88;;;4.38;47.72
21828;BME280;11076;47.942;11.804;2023-02-10T14:46:27;96078.13;;;4.36;48.71
21828;BME280;11076;47.942;11.804;2023-02-10T14:51:30;96077.97;;;4.28;47.22
21828;BME280;11076;47.942;11.804;2023-02-10T14:56:33;96081.72;;;4.26;47.97
21828;BME280;11076;47.942;11.804;2023-02-10T15:01:36;96083.66;;;4.24;49.08
21828;BME280;11076;47.942;11.804;2023-02-10T15:06:38;96085.78;;;4.20;49.91
21828;BME280;11076;47.942;11.804;2023-02-10T15:11:45;96081.16;;;4.03;50.66
21828;BME280;11076;47.942;11.804;2023-02-10T15:17:12;96074.88;;;3.94;51.54
21828;BME280;11076;47.942;11.804;2023-02-10T15:22:40;96081.53;;;3.78;50.94
21828;BME280;11076;47.942;11.804;2023-02-10T15:27:43;96083.13;;;3.60;51.24
21828;BME280;11076;47.942;11.804;2023-02-10T15:32:51;96082.91;;;3.42;51.84
21828;BME280;11076;47.942;11.804;2023-02-10T15:37:57;96092.31;;;3.25;52.12
21828;BME280;11076;47.942;11.804;2023-02-10T15:43:21;96089.91;;;2.91;52.61
21828;BME280;11076;47.942;11.804;2023-02-10T15:48:24;96094.94;;;2.52;53.24
21828;BME280;11076;47.942;11.804;2023-02-10T15:53:39;96109.03;;;2.09;54.13
21828;BME280;11076;47.942;11.804;2023-02-10T15:58:41;96106.09;;;1.69;55.63
21828;BME280;11076;47.942;11.804;2023-02-10T16:03:44;96110.09;;;1.41;56.36
21828;BME280;11076;47.942;11.804;2023-02-10T16:08:46;96105.50;;;0.97;56.77
21828;BME280;11076;47.942;11.804;2023-02-10T16:13:49;96112.03;;;0.69;58.44
21828;BME280;11076;47.942;11.804;2023-02-10T16:18:51;96125.03;;;0.48;58.88
21828;BME280;11076;47.942;11.804;2023-02-10T16:23:54;96124.91;;;0.26;59.68
21828;BME280;11076;47.942;11.804;2023-02-10T16:28:56;96121.47;;;0.01;60.20
21828;BME280;11076;47.942;11.804;2023-02-10T16:33:58;96126.38;;;-0.18;61.38
21828;BME280;11076;47.942;11.804;2023-02-10T16:39:01;96142.50;;;-0.36;60.95
21828;BME280;11076;47.942;11.804;2023-02-10T16:44:04;96142.16;;;-0.68;61.69
21828;BME280;11076;47.942;11.804;2023-02-10T16:49:07;96143.38;;;-0.48;63.22
21828;BME280;11076;47.942;11.804;2023-02-10T16:54:10;96143.84;;;-0.80;63.62
21828;BME280;11076;47.942;11.804;2023-02-10T16:59:15;96159.28;;;-1.01;64.74
21828;BME280;11076;47.942;11.804;2023-02-10T17:04:18;96166.31;;;-0.76;67.65
21828;BME280;11076;47.942;11.804;2023-02-10T17:09:22;96174.72;;;-0.71;67.43
21828;BME280;11076;47.942;11.804;2023-02-10T17:14:25;96179.06;;;-0.95;67.65
21828;BME280;11076;47.942;11.804;2023-02-10T17:19:27;96173.88;;;-1.10;68.67
21828;BME280;11076;47.942;11.804;2023-02-10T17:24:31;96184.13;;;-1.32;69.62
21828;BME280;11076;47.942;11.804;2023-02-10T17:29:33;96188.16;;;-1.54;70.14
21828;BME280;11076;47.942;11.804;2023-02-10T17:34:36;96187.09;;;-1.64;71.45
21828;BME280;11076;47.942;11.804;2023-02-10T17:39:38;96195.47;;;-1.72;72.88
21828;BME280;11076;47.942;11.804;2023-02-10T17:44:44;96201.53;;;-1.71;73.74
21828;BME280;11076;47.942;11.804;2023-02-10T17:49:46;96202.97;;;-1.80;74.54
21828;BME280;11076;47.942;11.804;2023-02-10T17:54:49;96207.03;;;-1.89;75.68
21828;BME280;11076;47.942;11.804;2023-02-10T17:59:51;96208.38;;;-1.96;75.75
21828;BME280;11076;47.942;11.804;2023-02-10T18:04:54;96210.63;;;-2.04;76.96
21828;BME280;11076;47.942;11.804;2023-02-10T18:09:56;96209.53;;;-2.14;76.95
21828;BME280;11076;47.942;11.804;2023-02-10T18:14:58;96212.72;;;-2.24;77.89
21828;BME280;11076;47.942;11.804;2023-02-10T18:20:01;96215.72;;;-2.30;78.76
21828;BME280;11076;47.942;11.804;2023-02-10T18:25:04;96210.22;;;-2.40;79.06
21828;BME280;11076;47.942;11.804;2023-02-10T18:30:08;96204.13;;;-2.40;79.06
21828;BME280;11076;47.942;11.804;2023-02-10T18:35:12;96208.34;;;-2.37;78.52
21828;BME280;11076;47.942;11.804;2023-02-10T18:40:14;96214.06;;;-2.60;79.91
21828;BME280;11076;47.942;11.804;2023-02-10T18:45:19;96205.47;;;-2.62;80.92
21828;BME280;11076;47.942;11.804;2023-02-10T18:50:22;96200.75;;;-2.71;81.64
21828;BME280;11076;47.942;11.804;2023-02-10T18:55:24;96196.78;;;-2.76;82.13
21828;BME280;11076;47.942;11.804;2023-02-10T19:00:26;96186.38;;;-2.64;81.79
21828;BME280;11076;47.942;11.804;2023-02-10T19:05:29;96181.22;;;-2.80;81.60
21828;BME280;11076;47.942;11.804;2023-02-10T19:10:31;96187.97;;;-2.90;82.97
21828;BME280;11076;47.942;11.804;2023-02-10T19:15:35;96191.25;;;-2.86;83.16
21828;BME280;11076;47.942;11.804;2023-02-10T19:20:51;96191.97;;;-2.98;84.36
21828;BME280;11076;47.942;11.804;2023-02-10T19:25:53;96175.53;;;-2.86;83.84
21828;BME280;11076;47.942;11.804;2023-02-10T19:31:00;96172.72;;;-2.97;84.72
21828;BME280;11076;47.942;11.804;2023-02-10T19:36:07;96187.75;;;-3.01;85.17
21828;BME280;11076;47.942;11.804;2023-02-10T19:41:20;96200.94;;;-3.03;85.30
21828;BME280;11076;47.942;11.804;2023-02-10T19:46:23;96201.13;;;-3.06;85.24
21828;BME280;11076;47.942;11.804;2023-02-10T19:51:26;96202.41;;;-3.13;85.06
21828;BME280;11076;47.942;11.804;2023-02-10T19:56:29;96202.03;;;-3.21;85.01
21828;BME280;11076;47.942;11.804;2023-02-10T20:01:32;96205.75;;;-3.25;85.70
21828;BME280;11076;47.942;11.804;2023-02-10T20:06:42;96203.41;;;-3.30;85.91
21828;BME280;11076;47.942;11.804;2023-02-10T20:11:45;96204.63;;;-3.35;85.76
21828;BME280;11076;47.942;11.804;2023-02-10T20:16:47;96202.59;;;-3.46;85.76
21828;BME280;11076;47.942;11.804;2023-02-10T20:21:50;96201.22;;;-3.52;85.55
21828;BME280;11076;47.942;11.804;2023-02-10T20:26:52;96202.31;;;-3.56;85.66
21828;BME280;11076;47.942;11.804;2023-02-10T20:31:55;96202.47;;;-3.59;86.29
21828;BME280;11076;47.942;11.804;2023-02-10T20:36:57;96209.66;;;-3.63;86.25
21828;BME280;11076;47.942;11.804;2023-02-10T20:42:00;96217.69;;;-3.66;86.85
21828;BME280;11076;47.942;11.804;2023-02-10T20:47:02;96212.81;;;-3.72;86.47
21828;BME280;11076;47.942;11.804;2023-02-10T20:52:06;96208.22;;;-3.68;87.25
21828;BME280;11076;47.942;11.804;2023-02-10T20:57:08;96211.09;;;-3.73;86.67
21828;BME280;11076;47.942;11.804;2023-02-10T21:02:12;96205.41;;;-3.80;86.73
21828;BME280;11076;47.942;11.804;2023-02-10T21:07:15;96199.75;;;-3.88;86.79
21828;BME280;11076;47.942;11.804;2023-02-10T21:12:18;96210.78;;;-3.83;87.08
21828;BME280;11076;47.942;11.804;2023-02-10T21:17:21;96205.91;;;-3.89;87.42
21828;BME280;11076;47.942;11.804;2023-02-10T21:22:24;96222.84;;;-3.96;87.80
21828;BME280;11076;47.942;11.804;2023-02-10T21:27:26;96214.91;;;-3.78;87.73
21828;BME280;11076;47.942;11.804;2023-02-10T21:32:30;96206.16;;;-3.93;87.92
21828;BME280;11076;47.942;11.804;2023-02-10T21:37:33;96209.13;;;-3.84;88.35
21828;BME280;11076;47.942;11.804;2023-02-10T21:42:36;96202.50;;;-3.75;88.45
21828;BME280;11076;47.942;11.804;2023-02-10T21:47:38;96207.22;;;-3.66;87.81
21828;BME280;11076;47.942;11.804;2023-02-10T21:52:41;96192.28;;;-3.64;87.90
21828;BME280;11076;47.942;11.804;2023-02-10T21:57:43;96185.34;;;-3.34;88.50
21828;BME280;11076;47.942;11.804;2023-02-10T22:02:45;96179.00;;;-3.00;88.34
21828;BME280;11076;47.942;11.804;2023-02-10T22:07:48;96178.88;;;-2.98;88.17
21828;BME280;11076;47.942;11.804;2023-02-10T22:12:50;96185.22;;;-3.03;87.70
21828;BME280;11076;47.942;11.804;2023-02-10T22:17:52;96182.72;;;-3.04;87.77
21828;BME280;11076;47.942;11.804;2023-02-10T22:22:55;96179.44;;;-3.22;87.69
21828;BME280;11076;47.942;11.804;2023-02-10T22:27:57;96178.25;;;-3.32;87.07
21828;BME280;11076;47.942;11.804;2023-02-10T22:32:59;96174.34;;;-3.40;87.24
21828;BME280;11076;47.942;11.804;2023-02-10T22:38:02;96171.53;;;-3.36;87.05
21828;BME280;11076;47.942;11.804;2023-02-10T22:43:04;96169.31;;;-3.28;87.32
21828;BME280;11076;47.942;11.804;2023-02-10T22:48:07;96171.28;;;-3.17;86.94
21828;BME280;11076;47.942;11.804;2023-02-10T22:53:09;96158.59;;;-3.09;86.36
21828;BME280;11076;47.942;11.804;2023-02-10T22:58:12;96155.69;;;-3.05;86.86
21828;BME280;11076;47.942;11.804;2023-02-10T23:03:14;96147.50;;;-2.84;86.63
21828;BME280;11076;47.942;11.804;2023-02-10T23:08:16;96143.06;;;-2.69;85.81
21828;BME280;11076;47.942;11.804;2023-02-10T23:13:19;96147.47;;;-2.70;85.90
21828;BME280;11076;47.942;11.804;2023-02-10T23:18:21;96141.66;;;-2.75;85.42
21828;BME280;11076;47.942;11.804;2023-02-10T23:23:24;96144.13;;;-2.86;85.78
21828;BME280;11076;47.942;11.804;2023-02-10T23:28:26;96137.41;;;-2.90;85.63
21828;BME280;11076;47.942;11.804;2023-02-10T23:33:29;96128.59;;;-3.04;85.23
21828;BME280;11076;47.942;11.804;2023-02-10T23:38:31;96141.47;;;-3.01;86.12
21828;BME280;11076;47.942;11.804;2023-02-10T23:43:34;96149.69;;;-3.21;86.02
21828;BME280;11076;47.942;11.804;2023-02-10T23:48:36;96147.44;;;-3.42;87.08
21828;BME280;11076;47.942;11.804;2023-02-10T23:53:39;96145.03;;;-3.61;86.58
21828;BME280;11076;47.942;11.804;2023-02-10T23:58:41;96145.34;;;-3.81;86.75
